Warning: include(/datas/vol1/w4a123858/var/www/legheer.be/meteo3/wt_data_intl.php): failed to open stream: No such file or directory in /datas/vol1/w4a123858/var/www/legheer.be/meteo3/wuh.php on line 24

Warning: include(): Failed opening 'wt_data_intl.php' for inclusion (include_path='.:/opt/alt/php56/usr/share/pear') in /datas/vol1/w4a123858/var/www/legheer.be/meteo3/wuh.php on line 24
| Quelques graphiques

Language: 


Des rapports , des résumés tant et plus, au choix de chacun....


Données statistiques de la station
Quotidien Rapport Janvier 13, 2017 Unités:  Anglais    Métrique   les deux
« Précédent Jour
Suivant Jour »
Quotidien Hebdomadaire Mensuel Annuel Actuel
  Haut: Bas: Moyen:
Température: 41.5 °F 32 °F 37.9 °F
Pt de rosée: 39 °F 30.6 °F 33.4 °F
Humidité: 98 % 0 % 84 %
Vitesse du vent: 24.2 mph 0.9 mph 8.7 mph
Rafales: 28.9 mph - -
Vent:- - West
Pression: 29.9 in 0 in -
Précipitation: 0.5 in    
Historical Graphs
 
 
Données statistiques pour Janvier 13, 2017
Heure Température Point de rosée Pression Vent Vitesse du vent Refales Humidité Pluie (taux horaire)
00:02 36 °F 35.4 °F 29.2 in NNE 12.1 mph 28.6 mph 98 % 0 in
00:07 36.1 °F 35.8 °F 29.2 in North 11 mph 28.6 mph 98 % 0 in
00:12 36.1 °F 35.8 °F 29.2 in North 11 mph 23.5 mph 98 % 0 in
00:17 36.1 °F 35.8 °F 29.2 in WNW 15.4 mph 28.9 mph 98 % 0 in
00:22 36.7 °F 36.1 °F 29.3 in North 22.4 mph 28.9 mph 98 % 0 in
00:27 36.9 °F 36.3 °F 29.3 in WNW 23.3 mph 23.3 mph 98 % 0 in
00:32 36.9 °F 36 °F 29.3 in WNW 20.4 mph 23.3 mph 97 % 0 in
00:37 36.9 °F 36.1 °F 29.3 in NE 6.5 mph 22.8 mph 97 % 0 in
00:42 36.9 °F 36.1 °F 29.3 in NW 19.9 mph 22.6 mph 97 % 0 in
00:47 36.9 °F 36.1 °F 29.3 in WNW 8.5 mph 22.6 mph 97 % 0 in
00:52 36.9 °F 36.1 °F 29.3 in WNW 7.8 mph 19.9 mph 97 % 0 in
00:57 37 °F 36.3 °F 29.3 in WNW 21.5 mph 21.5 mph 97 % 0 in
01:02 37.2 °F 36.5 °F 29.3 in WSW 12.5 mph 21.5 mph 97 % 0 in
01:07 37.6 °F 36.7 °F 29.3 in North 13.2 mph 19.7 mph 97 % 0 in
01:12 37.6 °F 36.7 °F 29.3 in West 12.5 mph 23.5 mph 97 % 0 in
01:17 37.6 °F 36.7 °F 29.3 in West 8.7 mph 23.5 mph 97 % 0 in
01:22 37.6 °F 36.7 °F 29.4 in SSW 17.2 mph 24.4 mph 97 % 0 in
01:27 37.2 °F 36.3 °F 29.4 in NNW 11 mph 24.4 mph 96 % 0 in
01:32 37.6 °F 36.3 °F 29.4 in NNW 10.5 mph 20.4 mph 96 % 0.37 in
01:37 37.6 °F 36.7 °F 29.4 in West 11.9 mph 19.9 mph 96 % 0.37 in
01:42 37.6 °F 36.7 °F 29.4 in WNW 14.3 mph 22.1 mph 96 % 0.37 in
01:47 37.6 °F 36.7 °F 29.4 in WSW 15.4 mph 22.1 mph 96 % 0.37 in
01:52 37.6 °F 36.3 °F 29.4 in West 14.1 mph 23.3 mph 96 % 0.38 in
01:57 37.6 °F 36.1 °F 29.4 in NW 12.8 mph 23.3 mph 95 % 0.38 in
02:02 32 °F 36.1 °F 0 in West 10.1 mph 17.6 mph 0 % 0.38 in
02:07 37.6 °F 36.1 °F 29.4 in West 10.7 mph 17.7 mph 95 % 0.38 in
02:12 37.6 °F 36 °F 29.4 in WNW 4.3 mph 17.7 mph 94 % 0.38 in
02:17 37.6 °F 36 °F 29.4 in North 15.4 mph 19.9 mph 94 % 0.38 in
02:22 37.6 °F 35.6 °F 29.4 in NW 17.7 mph 27.5 mph 93 % 0.38 in
02:27 37.6 °F 35.4 °F 29.4 in NNE 13.2 mph 27.5 mph 92 % 0.38 in
02:32 37.6 °F 35.1 °F 29.4 in WSW 10.7 mph 17.2 mph 90 % 0.01 in
02:37 37.6 °F 34.7 °F 29.5 in West 24.2 mph 24.2 mph 89 % 0.01 in
02:42 37.6 °F 34.2 °F 29.5 in WNW 15.4 mph 24.2 mph 87 % 0.01 in
02:47 37.6 °F 34.2 °F 29.5 in West 10.5 mph 19.5 mph 87 % 0.01 in
02:52 37.6 °F 33.8 °F 29.4 in WNW 10.7 mph 19.5 mph 86 % 0 in
02:57 37.6 °F 33.8 °F 29.4 in NNW 15.2 mph 24.2 mph 86 % 0 in
03:02 37.6 °F 33.4 °F 29.4 in ESE 11 mph 24.2 mph 85 % 0.01 in
03:07 37.6 °F 33.4 °F 29.4 in West 10.7 mph 21.3 mph 85 % 0.01 in
03:12 37.6 °F 33.4 °F 29.4 in WNW 14.3 mph 17.7 mph 85 % 0.01 in
03:17 37.6 °F 33.4 °F 29.4 in NNW 12.1 mph 21.5 mph 85 % 0.01 in
03:22 37.6 °F 33.4 °F 29.5 in WNW 12.3 mph 21.5 mph 85 % 0.01 in
03:27 37.2 °F 32.9 °F 29.5 in West 11 mph 18.8 mph 84 % 0.01 in
03:32 37.2 °F 32.9 °F 29.5 in WNW 7.8 mph 18.6 mph 84 % 0.01 in
03:37 37 °F 32.7 °F 29.5 in NE 10.1 mph 15.2 mph 84 % 0.01 in
03:42 37 °F 32.7 °F 29.5 in WSW 11 mph 20.1 mph 84 % 0.01 in
03:47 36.9 °F 32.5 °F 29.5 in SE 10.1 mph 20.1 mph 84 % 0.01 in
03:52 36.9 °F 32.5 °F 29.5 in WSW 14.1 mph 17.7 mph 84 % 0.01 in
03:57 36.9 °F 32.5 °F 29.5 in WNW 10.5 mph 14.3 mph 84 % 0 in
04:02 36.9 °F 32.4 °F 29.5 in WNW 14.3 mph 17.7 mph 84 % 0 in
04:08 36.9 °F 32.4 °F 29.5 in SW 8.5 mph 17.7 mph 84 % 0 in
04:13 36.9 °F 32.4 °F 29.5 in NW 10.3 mph 17.2 mph 84 % 0 in
04:18 36.9 °F 32.4 °F 29.5 in West 12.5 mph 17.9 mph 84 % 0 in
04:23 36.9 °F 32.4 °F 29.5 in WNW 9.6 mph 17.9 mph 84 % 0 in
04:28 36.7 °F 32.2 °F 29.5 in WNW 13 mph 15.4 mph 84 % 0 in
04:33 36.7 °F 32.2 °F 29.5 in WNW 10.5 mph 15.4 mph 84 % 0 in
04:38 36.7 °F 32.2 °F 29.5 in NNW 10.1 mph 17 mph 84 % 0 in
04:43 36.7 °F 32.2 °F 29.5 in WNW 4.7 mph 17 mph 84 % 0 in
04:48 36.3 °F 32 °F 29.5 in WNW 6.5 mph 13.9 mph 84 % 0 in
04:53 36.3 °F 32.4 °F 29.5 in WSW 6 mph 12.3 mph 85 % 0 in
04:58 36.1 °F 32.2 °F 29.5 in West 6.5 mph 13 mph 85 % 0 in
05:03 36.1 °F 32.2 °F 29.5 in West 6.5 mph 14.3 mph 85 % 0 in
05:08 36.1 °F 32.2 °F 29.5 in NNW 3.8 mph 14.3 mph 85 % 0 in
05:13 36.1 °F 32.2 °F 29.5 in WNW 4.9 mph 14.3 mph 85 % 0 in
05:18 36.3 °F 32.4 °F 29.5 in WSW 6.5 mph 13.2 mph 85 % 0 in
05:23 36.3 °F 32.4 °F 29.5 in NNW 12.1 mph 12.1 mph 85 % 0 in
05:28 36.3 °F 32.4 °F 29.5 in WSW 7.8 mph 15.4 mph 85 % 0 in
05:33 36.3 °F 32.4 °F 29.5 in West 7.8 mph 15.4 mph 85 % 0 in
05:38 36.3 °F 32.4 °F 29.5 in West 6 mph 13.2 mph 85 % 0 in
05:43 36.3 °F 32.4 °F 29.5 in West 7.8 mph 13.2 mph 85 % 0 in
05:48 36.3 °F 32.4 °F 29.5 in NNW 9.6 mph 13 mph 85 % 0 in
05:53 36.3 °F 32.4 °F 29.5 in NW 9.8 mph 13.6 mph 85 % 0 in
05:58 36.1 °F 32.2 °F 29.5 in WNW 12.5 mph 13.6 mph 85 % 0 in
06:03 36.3 °F 32.4 °F 29.5 in NNW 9.4 mph 17.7 mph 85 % 0 in
06:08 36.3 °F 32.4 °F 29.6 in WNW 6.3 mph 17.7 mph 85 % 0 in
06:13 36.3 °F 32.4 °F 29.6 in SSW 6 mph 13.2 mph 85 % 0 in
06:18 36.1 °F 32.2 °F 29.6 in West 5.8 mph 10.5 mph 85 % 0 in
06:23 36.1 °F 32.2 °F 29.5 in West 4.7 mph 12.5 mph 85 % 0 in
06:28 36.1 °F 32 °F 29.5 in West 2.9 mph 12.5 mph 85 % 0 in
06:33 36.1 °F 32 °F 29.5 in NW 6.5 mph 11 mph 85 % 0 in
06:38 36 °F 32.2 °F 29.6 in WSW 5.4 mph 10.5 mph 86 % 0 in
06:43 35.8 °F 31.8 °F 29.6 in West 5.4 mph 9.4 mph 86 % 0 in
06:48 35.8 °F 31.8 °F 29.6 in West 4 mph 9.4 mph 86 % 0 in
06:53 35.8 °F 31.8 °F 29.6 in West 4.5 mph 9.4 mph 86 % 0 in
06:58 35.8 °F 31.8 °F 29.6 in West 6 mph 8.7 mph 86 % 0 in
07:03 35.8 °F 32.2 °F 29.6 in West 6 mph 12.8 mph 87 % 0 in
07:08 35.8 °F 32.2 °F 29.6 in WSW 7.6 mph 12.8 mph 87 % 0 in
07:13 35.8 °F 32.2 °F 29.6 in West 4.9 mph 10.7 mph 87 % 0 in
07:18 35.8 °F 32.2 °F 29.6 in NW 10.3 mph 10.7 mph 87 % 0 in
07:23 35.8 °F 32.2 °F 29.6 in SSW 3.4 mph 10.7 mph 87 % 0 in
07:28 35.8 °F 32.5 °F 29.6 in WNW 7.6 mph 10.1 mph 88 % 0 in
07:33 35.8 °F 32.5 °F 29.6 in NW 7.6 mph 12.1 mph 88 % 0 in
07:38 36 °F 32.7 °F 29.6 in WSW 10.7 mph 13.4 mph 88 % 0 in
07:43 36 °F 32.7 °F 29.6 in NW 5.8 mph 13.4 mph 88 % 0 in
07:48 35.8 °F 32.5 °F 29.6 in West 3.6 mph 10.5 mph 88 % 0 in
07:53 35.8 °F 32.5 °F 29.6 in WNW 6.5 mph 10.5 mph 88 % 0 in
07:58 36 °F 32.7 °F 29.6 in WNW 6.5 mph 9.8 mph 88 % 0 in
08:03 36.1 °F 32.7 °F 29.6 in West 8.1 mph 11.9 mph 88 % 0 in
08:08 36.1 °F 33.1 °F 29.6 in NNW 5.8 mph 11.9 mph 89 % 0 in
08:13 36.1 °F 33.1 °F 29.6 in WNW 6 mph 13.2 mph 88 % 0 in
08:18 36.1 °F 33.1 °F 29.6 in West 6.5 mph 13.2 mph 88 % 0 in
08:23 36.3 °F 33.3 °F 29.6 in West 8.1 mph 9.8 mph 88 % 0 in
08:28 36.7 °F 33.4 °F 29.6 in West 10.1 mph 11 mph 88 % 0 in
08:33 36.7 °F 33.4 °F 29.6 in West 6.5 mph 15.4 mph 88 % 0 in
08:38 36.7 °F 33.4 °F 29.6 in North 8.5 mph 15.4 mph 88 % 0 in
08:43 36.7 °F 33.4 °F 29.6 in NW 6.5 mph 11 mph 88 % 0 in
08:48 36.7 °F 33.4 °F 29.6 in WNW 8.5 mph 10.7 mph 88 % 0 in
08:53 36.7 °F 33.4 °F 29.6 in NW 8.5 mph 10.7 mph 88 % 0 in
08:58 36.7 °F 33.4 °F 29.6 in West 10.5 mph 10.5 mph 88 % 0 in
09:03 36.7 °F 33.1 °F 29.6 in WNW 7.6 mph 10.5 mph 87 % 0 in
09:08 36.3 °F 32.9 °F 29.6 in North 6 mph 10.5 mph 87 % 0 in
09:13 36.1 °F 32.7 °F 29.6 in WNW 6 mph 9.8 mph 87 % 0 in
09:18 36.1 °F 32.5 °F 29.6 in West 4.7 mph 10.1 mph 87 % 0 in
09:23 36 °F 32.4 °F 29.7 in West 4.3 mph 10.1 mph 87 % 0 in
09:28 35.8 °F 32.2 °F 29.7 in West 8.1 mph 8.7 mph 87 % 0 in
09:33 35.8 °F 32.2 °F 29.7 in West 7.8 mph 9.6 mph 87 % 0 in
09:38 35.8 °F 32.2 °F 29.7 in WNW 10.1 mph 10.3 mph 87 % 0 in
09:43 35.8 °F 32.5 °F 29.7 in West 3.8 mph 10.7 mph 88 % 0 in
09:48 36 °F 32.7 °F 29.7 in West 6.5 mph 12.5 mph 88 % 0 in
09:53 36.1 °F 32.7 °F 29.7 in West 9.6 mph 12.5 mph 88 % 0 in
09:58 36.1 °F 33.1 °F 29.7 in North 6.5 mph 12.3 mph 89 % 0 in
10:03 36.1 °F 33.3 °F 29.7 in WSW 5.4 mph 15.2 mph 89 % 0 in
10:08 36.7 °F 33.6 °F 29.6 in West 6.3 mph 15.2 mph 89 % 0 in
10:13 36.9 °F 34 °F 29.6 in West 7.6 mph 12.1 mph 89 % 0 in
10:18 37.2 °F 34.2 °F 29.6 in West 0.9 mph 12.1 mph 88 % 0 in
10:23 37.6 °F 34.2 °F 29.7 in West 5.8 mph 12.1 mph 88 % 0 in
10:28 37.6 °F 34.2 °F 29.7 in West 4.3 mph 12.8 mph 87 % 0 in
10:33 37.8 °F 34 °F 29.7 in West 6 mph 12.8 mph 86 % 0 in
10:38 37.9 °F 34 °F 29.7 in WNW 5.4 mph 12.3 mph 85 % 0 in
10:43 38.5 °F 34.2 °F 29.7 in WSW 6.3 mph 12.3 mph 85 % 0 in
10:48 38.5 °F 34.2 °F 29.7 in West 8.1 mph 10.5 mph 84 % 0 in
10:53 38.7 °F 34 °F 29.6 in West 8.5 mph 13.2 mph 83 % 0 in
10:58 38.8 °F 33.4 °F 29.6 in WNW 5.8 mph 17.4 mph 81 % 0 in
11:04 39 °F 33.4 °F 29.6 in WNW 3.1 mph 17.4 mph 80 % 0 in
11:09 39 °F 33.1 °F 29.7 in West 6.7 mph 12.8 mph 79 % 0 in
11:14 39.2 °F 32.9 °F 29.7 in WNW 11 mph 14.1 mph 78 % 0 in
11:19 39.6 °F 33.1 °F 29.7 in NW 8.1 mph 14.5 mph 77 % 0 in
11:24 39.7 °F 32.7 °F 29.7 in West 12.1 mph 17.4 mph 76 % 0 in
11:29 40.5 °F 33.3 °F 29.7 in West 10.5 mph 17.4 mph 75 % 0 in
11:34 40.5 °F 33.3 °F 29.7 in NW 8.1 mph 13.2 mph 75 % 0 in
11:39 40.1 °F 32.2 °F 29.7 in West 9.8 mph 15.9 mph 73 % 0 in
11:44 39.4 °F 31.1 °F 29.7 in West 6.3 mph 17.7 mph 72 % 0 in
11:49 39 °F 30.7 °F 29.7 in West 15.2 mph 17.7 mph 72 % 0 in
11:54 38.8 °F 30.6 °F 29.7 in West 8.5 mph 15.4 mph 72 % 0 in
11:59 38.7 °F 30.7 °F 29.7 in West 8.7 mph 15.2 mph 73 % 0 in
12:04 38.7 °F 31.1 °F 29.7 in West 8.1 mph 14.1 mph 74 % 0 in
12:09 38.7 °F 31.1 °F 29.7 in West 12.5 mph 15.4 mph 74 % 0 in
12:14 38.5 °F 30.9 °F 29.7 in WSW 12.8 mph 21.3 mph 74 % 0 in
12:19 38.5 °F 30.7 °F 29.7 in WSW 10.1 mph 21.3 mph 74 % 0 in
12:24 38.1 °F 30.9 °F 29.7 in West 10.3 mph 21.9 mph 75 % 0 in
12:29 37.8 °F 30.9 °F 29.7 in WNW 9.6 mph 21.9 mph 76 % 0 in
12:34 37.6 °F 31.3 °F 29.7 in WNW 10.3 mph 23.7 mph 78 % 0 in
12:39 36.9 °F 31.3 °F 29.7 in West 12.8 mph 23.7 mph 80 % 0 in
12:44 36.1 °F 31.3 °F 29.7 in West 7.8 mph 19.9 mph 82 % 0 in
12:49 36.1 °F 31.6 °F 29.7 in West 7.4 mph 16.8 mph 84 % 0 in
12:54 36 °F 32.2 °F 29.7 in WSW 10.5 mph 15.4 mph 86 % 0 in
12:59 36 °F 33.1 °F 29.7 in WNW 12.8 mph 19.9 mph 89 % 0 in
13:04 36 °F 33.4 °F 29.7 in West 10.7 mph 19.9 mph 91 % 0 in
13:09 36 °F 33.8 °F 29.7 in West 13.4 mph 15.7 mph 92 % 0 in
13:14 36 °F 34.2 °F 29.7 in WSW 11 mph 15.2 mph 93 % 0 in
13:19 36.1 °F 34.5 °F 29.7 in West 12.8 mph 15.9 mph 94 % 0 in
13:24 36.1 °F 34.9 °F 29.7 in West 10.1 mph 16.1 mph 95 % 0 in
13:29 36.1 °F 34.9 °F 29.7 in WSW 7.6 mph 16.1 mph 95 % 0 in
13:34 36.3 °F 35.4 °F 29.7 in WSW 13.2 mph 17 mph 96 % 0 in
13:39 36.3 °F 35.4 °F 29.6 in West 10.1 mph 17 mph 96 % 0 in
13:44 36.7 °F 35.2 °F 29.6 in WSW 10.3 mph 17.4 mph 95 % 0 in
13:49 36.7 °F 35.2 °F 29.6 in West 8.1 mph 17.4 mph 95 % 0 in
13:54 36.9 °F 35.4 °F 29.6 in WSW 14.8 mph 19.7 mph 95 % 0 in
13:59 36.7 °F 35.1 °F 29.6 in West 10.7 mph 19.7 mph 94 % 0 in
14:04 36.7 °F 35.1 °F 29.6 in West 17.2 mph 19.5 mph 94 % 0 in
14:09 36.7 °F 35.1 °F 29.6 in West 14.1 mph 21.5 mph 94 % 0 in
14:14 36.7 °F 35.2 °F 29.6 in West 9.4 mph 21.5 mph 95 % 0 in
14:19 36.9 °F 35.4 °F 29.6 in West 17 mph 22.8 mph 95 % 0 in
14:24 36.9 °F 35.4 °F 29.6 in West 17.2 mph 23.9 mph 95 % 0 in
14:29 36.7 °F 35.2 °F 29.6 in West 8.1 mph 23.9 mph 95 % 0 in
14:34 36.7 °F 35.2 °F 29.6 in West 15.4 mph 23 mph 95 % 0 in
14:39 36.7 °F 35.2 °F 29.6 in WSW 15.2 mph 17.9 mph 95 % 0 in
14:44 36.3 °F 35.1 °F 29.6 in West 11.2 mph 17.9 mph 95 % 0 in
14:49 36.1 °F 34.9 °F 29.6 in West 12.1 mph 17.9 mph 95 % 0 in
14:54 36.1 °F 34.9 °F 29.6 in West 8.1 mph 17.2 mph 95 % 0 in
14:59 36 °F 34.5 °F 29.6 in WSW 5.4 mph 15.4 mph 95 % 0 in
15:04 35.8 °F 34.3 °F 29.6 in West 10.7 mph 16.3 mph 95 % 0 in
15:09 35.4 °F 34.2 °F 29.6 in West 10.5 mph 16.3 mph 95 % 0 in
15:14 35.2 °F 34.2 °F 29.6 in WSW 3.4 mph 14.8 mph 96 % 0 in
15:19 35.1 °F 34 °F 29.6 in West 10.3 mph 13 mph 96 % 0 in
15:24 34.9 °F 33.8 °F 29.6 in West 11 mph 13 mph 96 % 0 in
15:29 34.5 °F 33.4 °F 29.6 in West 5.4 mph 13.2 mph 96 % 0 in
15:34 34.3 °F 33.3 °F 29.6 in WSW 6 mph 13.2 mph 96 % 0 in
15:39 34.2 °F 33.1 °F 29.6 in West 5.6 mph 11 mph 96 % 0 in
15:44 34.2 °F 33.1 °F 29.6 in WSW 5.4 mph 10.1 mph 96 % 0 in
15:49 34.2 °F 33.1 °F 29.6 in West 11 mph 11.9 mph 96 % 0 in
15:54 34.2 °F 33.4 °F 29.7 in SSW 5.4 mph 11.9 mph 97 % 0 in
15:59 34.5 °F 33.6 °F 29.7 in West 7.4 mph 10.7 mph 97 % 0 in
16:04 35.1 °F 34.2 °F 29.7 in WNW 2.9 mph 9.6 mph 97 % 0 in
16:09 35.8 °F 35.2 °F 29.7 in West 5.4 mph 10.1 mph 98 % 0 in
16:14 37.6 °F 37 °F 29.7 in NNW 16.6 mph 17.7 mph 98 % 0 in
16:19 38.5 °F 37.8 °F 29.7 in NW 14.3 mph 17.7 mph 98 % 0 in
16:24 39 °F 38.3 °F 29.7 in NNW 6 mph 15.4 mph 97 % 0 in
16:29 39.4 °F 38.7 °F 29.7 in WNW 9.2 mph 16.3 mph 97 % 0 in
16:34 39.9 °F 38.8 °F 29.7 in NW 5.6 mph 17.7 mph 96 % 0 in
16:39 40.3 °F 39 °F 29.7 in NNW 10.5 mph 17.7 mph 95 % 0.11 in
16:44 40.5 °F 38.8 °F 29.7 in NNW 11.9 mph 17.2 mph 94 % 0.11 in
16:49 40.6 °F 38.8 °F 29.7 in NNW 7.6 mph 19.9 mph 93 % 0.11 in
16:54 40.6 °F 38.1 °F 29.7 in NNW 12.3 mph 19.9 mph 91 % 0.11 in
16:59 40.8 °F 38.1 °F 29.7 in NNW 8.7 mph 15.2 mph 90 % 0.11 in
17:04 41 °F 37.8 °F 29.7 in NW 10.1 mph 16.8 mph 88 % 0.11 in
17:09 41 °F 37.4 °F 29.7 in NNW 4 mph 16.8 mph 87 % 0.11 in
17:14 41 °F 36.9 °F 29.7 in North 6 mph 17.4 mph 85 % 0.11 in
17:19 41.2 °F 36.7 °F 29.7 in NNW 10.3 mph 17.4 mph 84 % 0.11 in
17:24 41.4 °F 36.3 °F 29.7 in NNW 11 mph 17 mph 82 % 0.11 in
17:29 41.4 °F 36.3 °F 29.7 in NNE 3.8 mph 14.8 mph 82 % 0.11 in
17:34 41.4 °F 36 °F 29.7 in West 15.2 mph 18.1 mph 81 % 0.11 in
17:39 41.4 °F 35.6 °F 29.7 in North 9.4 mph 18.1 mph 80 % 0 in
17:44 41.4 °F 35.2 °F 29.7 in NW 8.1 mph 23.7 mph 79 % 0 in
17:49 41.4 °F 35.1 °F 29.7 in North 10.5 mph 23.7 mph 78 % 0 in
17:55 41.4 °F 35.1 °F 29.7 in North 6.7 mph 21 mph 78 % 0 in
18:00 41.4 °F 34.7 °F 29.7 in NNW 8.5 mph 14.5 mph 77 % 0 in
18:05 41.4 °F 34.3 °F 29.7 in NNW 2.7 mph 21 mph 76 % 0 in
18:10 41.4 °F 34.3 °F 29.7 in NNW 6.3 mph 21 mph 76 % 0 in
18:15 41.4 °F 34.3 °F 29.7 in West 5.4 mph 15.2 mph 76 % 0 in
18:20 41.5 °F 34.5 °F 29.7 in NNE 8.5 mph 15.9 mph 76 % 0 in
18:25 41.5 °F 34.5 °F 29.7 in NNW 8.7 mph 19 mph 76 % 0 in
18:30 41.5 °F 34.2 °F 29.7 in North 7.6 mph 19 mph 75 % 0 in
18:35 41.5 °F 34.2 °F 29.7 in North 12.5 mph 22.4 mph 75 % 0 in
18:40 41.5 °F 34.2 °F 29.7 in NNE 6 mph 22.4 mph 75 % 0 in
18:45 41.5 °F 34 °F 29.7 in West 5.6 mph 14.5 mph 74 % 0 in
18:50 41.5 °F 34 °F 29.7 in NW 10.7 mph 14.5 mph 74 % 0 in
18:55 41.5 °F 34 °F 29.8 in NW 9.4 mph 14.5 mph 74 % 0 in
19:00 41.5 °F 34 °F 29.8 in NE 4.7 mph 14.5 mph 74 % 0 in
19:05 41.4 °F 33.6 °F 29.8 in NNE 6.9 mph 12.8 mph 74 % 0 in
19:10 41.4 °F 33.3 °F 29.8 in NNW 3.6 mph 15.4 mph 73 % 0 in
19:15 41.4 °F 33.3 °F 29.8 in NNW 6.5 mph 16.1 mph 73 % 0 in
19:20 41.4 °F 33.1 °F 29.8 in NW 5.8 mph 16.6 mph 72 % 0 in
19:25 41.4 °F 33.3 °F 29.8 in West 5.6 mph 16.6 mph 73 % 0 in
19:30 41.2 °F 33.3 °F 29.8 in North 13 mph 15.4 mph 73 % 0 in
19:35 41.2 °F 33.3 °F 29.8 in NNW 5.8 mph 13 mph 73 % 0 in
19:40 41.2 °F 33.3 °F 29.8 in ESE 2.5 mph 14.5 mph 73 % 0 in
19:45 41 °F 33.1 °F 29.8 in West 6.5 mph 14.5 mph 73 % 0 in
19:50 41 °F 33.1 °F 29.8 in NNE 3.6 mph 11.9 mph 73 % 0 in
19:55 41 °F 33.1 °F 29.8 in NNW 10.7 mph 11.9 mph 73 % 0 in
20:00 41 °F 32.7 °F 29.8 in North 5.4 mph 19.2 mph 72 % 0 in
20:05 41 °F 32.7 °F 29.8 in WNW 8.5 mph 19.7 mph 72 % 0 in
20:10 41 °F 32.7 °F 29.8 in NNW 5.8 mph 19.7 mph 72 % 0 in
20:15 41 °F 32.4 °F 29.8 in North 6.7 mph 15.4 mph 71 % 0 in
20:20 41 °F 32.4 °F 29.8 in NW 3.4 mph 15.4 mph 71 % 0 in
20:25 41 °F 32.4 °F 29.8 in West 7.4 mph 11.9 mph 71 % 0 in
20:30 41 °F 32.4 °F 29.8 in NNW 7.6 mph 13.2 mph 71 % 0 in
20:35 41 °F 32.4 °F 29.8 in NNW 5.6 mph 13.2 mph 71 % 0 in
20:40 41 °F 32 °F 29.8 in SSW 1.6 mph 14.5 mph 70 % 0 in
20:45 41 °F 32 °F 29.8 in NNW 6.9 mph 20.8 mph 70 % 0 in
20:50 40.8 °F 31.5 °F 29.8 in WNW 17.7 mph 23.3 mph 69 % 0 in
20:55 40.8 °F 31.5 °F 29.8 in WNW 8.5 mph 23.3 mph 69 % 0 in
21:00 40.8 °F 31.5 °F 29.8 in WNW 4 mph 17.7 mph 69 % 0 in
21:05 40.8 °F 31.5 °F 29.8 in WNW 3.6 mph 13.9 mph 69 % 0 in
21:10 40.6 °F 31.3 °F 29.8 in NNW 3.8 mph 13.9 mph 69 % 0 in
21:15 40.6 °F 31.6 °F 29.8 in WNW 5.8 mph 18.8 mph 70 % 0 in
21:20 40.6 °F 31.6 °F 29.8 in NNW 8.5 mph 18.8 mph 70 % 0 in
21:25 40.6 °F 31.6 °F 29.8 in NNE 3.8 mph 15.2 mph 70 % 0 in
21:30 40.6 °F 31.6 °F 29.8 in WNW 6.3 mph 15.2 mph 70 % 0 in
21:35 40.5 °F 31.8 °F 29.8 in WNW 6.3 mph 8.7 mph 71 % 0 in
21:40 40.6 °F 31.6 °F 29.8 in WSW 6.5 mph 10.1 mph 70 % 0 in
21:45 40.5 °F 31.8 °F 29.8 in North 3.8 mph 10.1 mph 71 % 0 in
21:50 40.5 °F 31.5 °F 29.8 in NNW 4.5 mph 13 mph 70 % 0 in
21:55 40.5 °F 31.5 °F 29.9 in WSW 6 mph 13 mph 70 % 0 in
22:00 40.5 °F 31.5 °F 29.9 in NW 5.4 mph 8.7 mph 70 % 0 in
22:05 40.5 °F 31.5 °F 29.9 in NNW 7.4 mph 12.3 mph 70 % 0 in
22:10 40.5 °F 31.5 °F 29.9 in WNW 6.3 mph 14.5 mph 70 % 0 in
22:16 40.5 °F 31.5 °F 29.9 in NW 9.8 mph 14.5 mph 70 % 0 in
22:21 40.5 °F 31.5 °F 29.9 in NW 7.8 mph 12.5 mph 70 % 0 in
22:26 40.5 °F 31.5 °F 29.9 in NNW 5.6 mph 12.5 mph 70 % 0 in
22:31 40.5 °F 31.5 °F 29.9 in West 6.5 mph 12.1 mph 70 % 0 in
22:36 40.3 °F 31.3 °F 29.9 in ENE 3.8 mph 12.3 mph 70 % 0 in
22:41 40.3 °F 31.3 °F 29.9 in West 7.8 mph 13.2 mph 70 % 0 in
22:46 40.1 °F 31.1 °F 29.9 in North 4 mph 13.2 mph 70 % 0 in
22:51 40.1 °F 31.1 °F 29.9 in NNW 3.6 mph 10.1 mph 70 % 0 in
22:56 40.1 °F 31.1 °F 29.9 in NNW 6.9 mph 9.8 mph 70 % 0 in
23:01 40.1 °F 31.1 °F 29.9 in WNW 6 mph 9.8 mph 70 % 0 in
23:06 40.1 °F 31.1 °F 29.9 in NNW 7.6 mph 9.8 mph 70 % 0 in
23:11 40.1 °F 31.1 °F 29.9 in West 3.8 mph 13.2 mph 70 % 0 in
23:16 40.1 °F 31.1 °F 29.9 in NNW 3.1 mph 13.2 mph 70 % 0 in
23:21 40.1 °F 31.1 °F 29.9 in North 4.7 mph 11.9 mph 70 % 0 in
23:26 40.1 °F 31.1 °F 29.8 in NNW 5.4 mph 11.9 mph 70 % 0 in
23:31 40.1 °F 31.1 °F 29.8 in NNW 5.4 mph 13 mph 70 % 0 in
23:36 40.1 °F 31.1 °F 29.8 in North 3.1 mph 13 mph 70 % 0 in
23:41 39.9 °F 30.9 °F 29.9 in NE 5.8 mph 10.7 mph 70 % 0 in
23:46 39.9 °F 30.9 °F 29.9 in North 7.4 mph 12.1 mph 70 % 0 in
23:51 39.9 °F 30.9 °F 29.9 in West 4.7 mph 13.2 mph 70 % 0 in
23:56 39.9 °F 30.6 °F 29.9 in WNW 7.8 mph 17.7 mph 69 % 0 in
Le Gheer Warneton
Courtoisie de Weather Underground - 2.25 mb

Mise a jour :
Généré par Cumulus ()